createdAt,value
2022-11-28T00:02:05.814Z,10.70
2022-11-28T00:04:32.820Z,9.00
2022-11-28T00:07:00.089Z,11.60
2022-11-28T00:09:27.266Z,10.97
2022-11-28T00:11:54.393Z,11.35
2022-11-28T00:14:21.642Z,8.70
2022-11-28T00:16:48.938Z,9.77
2022-11-28T00:19:16.300Z,9.88
2022-11-28T00:21:43.431Z,11.03
2022-11-28T00:24:12.473Z,9.40
2022-11-28T00:26:41.813Z,8.48
2022-11-28T00:29:11.775Z,7.30
2022-11-28T00:31:42.944Z,7.03
2022-11-28T00:34:13.627Z,5.57
2022-11-28T00:36:41.254Z,6.65
2022-11-28T00:39:08.491Z,6.80
2022-11-28T00:41:35.618Z,6.45
2022-11-28T00:44:02.859Z,7.80
2022-11-28T00:46:30.547Z,7.37
2022-11-28T00:48:58.632Z,7.43
2022-11-28T00:51:28.832Z,6.70
2022-11-28T00:53:58.611Z,6.38
2022-11-28T00:56:28.209Z,7.55
2022-11-28T00:58:56.346Z,8.57
2022-11-28T01:01:25.305Z,8.02
2022-11-28T01:03:54.477Z,7.00
2022-11-28T01:06:43.793Z,7.38
2022-11-28T01:09:14.098Z,7.57
2022-11-28T01:11:42.465Z,7.10
2022-11-28T01:14:10.640Z,6.25
2022-11-28T01:16:37.947Z,6.47
2022-11-28T01:19:05.932Z,6.82
2022-11-28T01:21:33.057Z,6.80
2022-11-28T01:24:00.242Z,6.50
2022-11-28T01:26:29.558Z,5.90
2022-11-28T01:28:57.399Z,5.85
2022-11-28T01:31:26.677Z,5.88
2022-11-28T01:33:54.365Z,7.38
2022-11-28T01:36:22.158Z,8.00
2022-11-28T01:38:50.170Z,8.27
2022-11-28T01:41:24.639Z,8.20
2022-11-28T01:44:29.378Z,8.30
2022-11-28T01:46:56.748Z,8.27
2022-11-28T01:49:36.931Z,7.87
2022-11-28T01:52:10.336Z,9.20
2022-11-28T01:54:38.636Z,9.10
2022-11-28T01:57:11.295Z,8.38
2022-11-28T01:59:44.494Z,9.98
2022-11-28T02:02:20.187Z,9.80
2022-11-28T02:04:48.908Z,9.63
2022-11-28T02:07:16.066Z,9.65
2022-11-28T02:09:43.091Z,9.43
2022-11-28T02:12:51.525Z,8.68
2022-11-28T02:15:44.291Z,6.10
2022-11-28T02:18:29.608Z,7.28
2022-11-28T02:21:05.601Z,8.10
2022-11-28T02:24:20.795Z,6.13
2022-11-28T02:26:50.803Z,7.45
2022-11-28T02:29:34.447Z,6.10
2022-11-28T02:32:21.028Z,7.30
2022-11-28T02:35:05.214Z,7.30
2022-11-28T02:37:35.100Z,7.50
2022-11-28T02:40:27.868Z,7.03
2022-11-28T02:43:36.600Z,7.83
2022-11-28T02:46:18.817Z,7.53
2022-11-28T02:49:12.062Z,8.27
2022-11-28T02:51:47.116Z,8.95
2022-11-28T02:54:17.642Z,8.95
2022-11-28T02:56:49.449Z,8.73
2022-11-28T02:59:46.662Z,8.27
2022-11-28T03:02:27.703Z,9.23
2022-11-28T03:05:24.857Z,8.13
2022-11-28T03:07:51.911Z,9.05
2022-11-28T03:10:30.541Z,7.27
2022-11-28T03:13:19.166Z,8.13
2022-11-28T03:16:14.269Z,8.13
2022-11-28T03:19:03.195Z,6.50
2022-11-28T03:21:30.203Z,7.38
2022-11-28T03:24:06.578Z,7.20
2022-11-28T03:26:58.065Z,8.38
2022-11-28T03:29:54.204Z,8.13
2022-11-28T03:32:30.600Z,8.82
2022-11-28T03:35:05.197Z,9.48
2022-11-28T03:37:40.144Z,9.70
2022-11-28T03:40:14.268Z,8.52
2022-11-28T03:42:50.928Z,7.25
2022-11-28T03:45:25.752Z,8.43
2022-11-28T03:48:03.735Z,8.90
2022-11-28T03:50:45.984Z,8.80
2022-11-28T03:53:23.969Z,9.73
2022-11-28T03:56:00.274Z,9.75
2022-11-28T03:58:50.144Z,9.77
2022-11-28T04:01:25.559Z,9.20
2022-11-28T04:04:02.550Z,9.80
2022-11-28T04:06:47.862Z,8.57
2022-11-28T04:09:20.219Z,9.55
2022-11-28T04:11:56.782Z,9.23
2022-11-28T04:14:26.729Z,8.23
2022-11-28T04:17:25.258Z,9.27
2022-11-28T04:19:58.194Z,10.20
2022-11-28T04:22:31.143Z,8.85
2022-11-28T04:25:04.061Z,10.25
2022-11-28T04:27:38.372Z,10.88
2022-11-28T04:30:08.056Z,9.93
2022-11-28T04:32:40.723Z,10.10
2022-11-28T04:35:12.890Z,7.55
2022-11-28T04:37:44.550Z,9.65
2022-11-28T04:40:13.143Z,6.82
2022-11-28T04:43:04.370Z,8.27
2022-11-28T04:45:33.991Z,9.05
2022-11-28T04:48:01.956Z,8.05
2022-11-28T04:50:38.005Z,7.55
2022-11-28T04:53:19.111Z,8.32
2022-11-28T04:56:02.687Z,8.50
2022-11-28T04:58:40.600Z,6.53
2022-11-28T05:01:11.857Z,9.38
2022-11-28T05:03:42.537Z,8.70
2022-11-28T05:06:10.295Z,9.30
2022-11-28T05:08:37.318Z,9.57
2022-11-28T05:11:04.505Z,8.20
2022-11-28T05:13:31.446Z,8.77
2022-11-28T05:16:01.348Z,8.18
2022-11-28T05:18:28.500Z,7.30
2022-11-28T05:20:55.502Z,9.07
2022-11-28T05:23:22.375Z,8.60
2022-11-28T05:25:50.123Z,7.88
2022-11-28T05:28:17.129Z,7.03
2022-11-28T05:30:44.289Z,6.90
2022-11-28T05:33:11.771Z,8.27
2022-11-28T05:35:43.319Z,8.68
2022-11-28T05:38:13.549Z,7.18
2022-11-28T05:40:44.315Z,8.60
2022-11-28T05:43:11.912Z,7.35
2022-11-28T05:45:45.801Z,10.37
2022-11-28T05:48:12.956Z,9.50
2022-11-28T05:50:41.484Z,9.60
2022-11-28T05:53:08.886Z,9.77
2022-11-28T05:55:37.896Z,8.32
2022-11-28T05:58:05.046Z,9.50
2022-11-28T06:00:32.575Z,6.88
2022-11-28T06:03:01.763Z,7.38
2022-11-28T06:05:42.364Z,8.75
2022-11-28T06:08:14.036Z,6.75
2022-11-28T06:10:41.350Z,6.97
2022-11-28T06:13:08.883Z,8.55
2022-11-28T06:15:38.262Z,8.80
2022-11-28T06:18:09.567Z,7.72
2022-11-28T06:20:36.821Z,9.20
2022-11-28T06:23:03.833Z,6.53
2022-11-28T06:25:30.728Z,7.32
2022-11-28T06:27:57.845Z,6.03
2022-11-28T06:30:25.243Z,7.50
2022-11-28T06:32:52.364Z,6.35
2022-11-28T06:35:19.369Z,6.70
2022-11-28T06:37:46.427Z,4.13
2022-11-28T06:40:13.894Z,4.50
2022-11-28T06:42:40.999Z,6.88
2022-11-28T06:45:09.533Z,5.68
2022-11-28T06:47:36.631Z,6.60
2022-11-28T06:50:04.401Z,6.88
2022-11-28T06:52:31.519Z,6.32
2022-11-28T06:54:58.571Z,7.43
2022-11-28T06:57:25.891Z,8.02
2022-11-28T06:59:52.787Z,7.07
2022-11-28T07:02:19.918Z,7.57
2022-11-28T07:04:47.096Z,7.50
2022-11-28T07:07:16.683Z,7.97
2022-11-28T07:09:46.204Z,7.75
2022-11-28T07:12:16.189Z,7.07
2022-11-28T07:14:43.326Z,8.32
2022-11-28T07:17:10.495Z,8.27
2022-11-28T07:19:38.528Z,7.38
2022-11-28T07:22:06.891Z,8.57
2022-11-28T07:24:38.498Z,8.23
2022-11-28T07:27:09.197Z,8.45
2022-11-28T07:29:39.547Z,9.02
2022-11-28T07:32:09.464Z,10.43
2022-11-28T07:34:36.644Z,8.27
2022-11-28T07:37:21.131Z,6.90
2022-11-28T07:39:50.088Z,8.93
2022-11-28T07:42:17.128Z,7.57
2022-11-28T07:44:55.656Z,8.13
2022-11-28T07:47:25.350Z,7.88
2022-11-28T07:49:52.645Z,9.03
2022-11-28T07:52:20.578Z,6.68
2022-11-28T07:54:49.785Z,7.43
2022-11-28T07:57:19.022Z,8.30
2022-11-28T07:59:48.342Z,8.73
2022-11-28T08:02:15.939Z,6.97
2022-11-28T08:04:48.616Z,7.20
2022-11-28T08:07:22.883Z,8.80
2022-11-28T08:09:52.957Z,9.80
2022-11-28T08:12:20.661Z,10.07
2022-11-28T08:14:47.678Z,8.67
2022-11-28T08:17:15.088Z,8.93
2022-11-28T08:19:44.697Z,8.77
2022-11-28T08:22:11.891Z,7.38
2022-11-28T08:24:39.412Z,9.10
2022-11-28T08:27:09.834Z,9.23
2022-11-28T08:29:37.087Z,7.93
2022-11-28T08:32:04.323Z,8.75
2022-11-28T08:34:31.455Z,9.20
2022-11-28T08:36:58.493Z,8.75
2022-11-28T08:39:25.805Z,7.73
2022-11-28T08:42:00.210Z,8.85
2022-11-28T08:44:32.274Z,6.63
2022-11-28T08:46:59.379Z,8.75
2022-11-28T08:49:26.380Z,7.80
2022-11-28T08:51:53.479Z,8.13
2022-11-28T08:54:21.296Z,8.25
2022-11-28T08:56:50.116Z,7.68
2022-11-28T08:59:17.294Z,8.90
2022-11-28T09:01:44.588Z,8.93
2022-11-28T09:04:11.778Z,7.83
2022-11-28T09:06:40.349Z,7.72
2022-11-28T09:09:10.996Z,9.48
2022-11-28T09:11:41.363Z,8.25
2022-11-28T09:14:14.616Z,7.90
2022-11-28T09:16:43.213Z,7.67
2022-11-28T09:19:11.188Z,7.18
2022-11-28T09:21:40.200Z,8.43
2022-11-28T09:24:08.058Z,7.85
2022-11-28T09:26:37.745Z,7.95
2022-11-28T09:29:04.852Z,8.50
2022-11-28T09:31:34.801Z,7.22
2022-11-28T09:34:03.574Z,9.40
2022-11-28T09:36:35.543Z,9.65
2022-11-28T09:39:02.759Z,7.95
2022-11-28T09:41:36.032Z,6.37
2022-11-28T09:44:12.258Z,6.53
2022-11-28T09:46:46.466Z,6.90
2022-11-28T09:49:38.577Z,7.65
2022-11-28T09:52:33.978Z,7.10
2022-11-28T09:55:43.776Z,7.13
2022-11-28T09:58:46.679Z,7.78
2022-11-28T10:01:40.851Z,6.30
2022-11-28T10:04:26.291Z,5.88
2022-11-28T10:07:10.261Z,6.80
2022-11-28T10:09:49.609Z,6.57
2022-11-28T10:12:27.693Z,6.50
2022-11-28T10:15:02.744Z,7.03
2022-11-28T10:17:34.857Z,5.60
2022-11-28T10:20:28.989Z,5.78
2022-11-28T10:23:01.211Z,4.90
2022-11-28T10:25:42.787Z,5.28
2022-11-28T10:28:17.776Z,7.00
2022-11-28T10:31:17.230Z,5.40
2022-11-28T10:33:54.651Z,5.55
2022-11-28T10:36:27.606Z,5.13
2022-11-28T10:38:57.100Z,5.13
2022-11-28T10:41:45.522Z,5.75
2022-11-28T10:44:36.149Z,4.90
2022-11-28T10:47:08.075Z,5.80
2022-11-28T10:49:35.145Z,5.97
2022-11-28T10:52:29.066Z,7.50
2022-11-28T10:55:08.175Z,7.60
2022-11-28T10:57:59.982Z,6.25
2022-11-28T11:00:29.971Z,7.07
2022-11-28T11:03:00.936Z,6.90
2022-11-28T11:05:27.878Z,6.40
2022-11-28T11:08:05.322Z,6.78
2022-11-28T11:10:47.038Z,6.10
2022-11-28T11:13:19.637Z,6.28
2022-11-28T11:15:50.211Z,5.00
2022-11-28T11:18:29.854Z,5.50
2022-11-28T11:21:16.329Z,5.90
2022-11-28T11:23:44.865Z,4.25
2022-11-28T11:26:43.787Z,4.40
2022-11-28T11:29:35.712Z,5.43
2022-11-28T11:32:06.427Z,3.85
2022-11-28T11:34:42.923Z,3.85
2022-11-28T11:37:36.139Z,4.90
2022-11-28T11:40:24.602Z,3.75
2022-11-28T11:43:01.557Z,4.27
2022-11-28T11:45:36.026Z,5.43
2022-11-28T11:48:09.199Z,6.30
2022-11-28T11:50:39.910Z,6.50
2022-11-28T11:53:15.070Z,6.50
2022-11-28T11:56:05.243Z,5.73
2022-11-28T11:58:45.354Z,6.50
2022-11-28T12:01:17.290Z,5.57
2022-11-28T12:04:08.464Z,6.47
2022-11-28T12:06:52.158Z,5.78
2022-11-28T12:09:28.689Z,5.53
2022-11-28T12:12:04.338Z,7.00
2022-11-28T12:14:36.833Z,6.30
2022-11-28T12:20:41.156Z,7.30
2022-11-28T12:23:29.964Z,6.13
2022-11-28T12:26:05.723Z,7.57
2022-11-28T12:28:54.220Z,6.28
2022-11-28T12:32:01.283Z,8.10
2022-11-28T12:34:38.290Z,6.90
2022-11-28T12:37:08.161Z,8.17
2022-11-28T12:39:51.316Z,8.05
2022-11-28T12:42:48.130Z,7.55
2022-11-28T12:45:33.034Z,7.85
2022-11-28T12:48:02.061Z,6.75
2022-11-28T12:50:34.113Z,8.20
2022-11-28T12:53:26.585Z,6.05
2022-11-28T12:56:02.668Z,7.50
2022-11-28T12:58:37.233Z,8.43
2022-11-28T13:01:27.261Z,7.97
2022-11-28T13:04:23.055Z,8.13
2022-11-28T13:07:00.998Z,7.47
2022-11-28T13:09:38.835Z,8.77
2022-11-28T13:12:22.099Z,7.88
2022-11-28T13:14:56.526Z,8.05
2022-11-28T13:17:58.277Z,7.37
2022-11-28T13:20:34.321Z,6.55
2022-11-28T13:23:22.804Z,5.70
2022-11-28T13:26:02.179Z,7.40
2022-11-28T13:28:46.911Z,5.50
2022-11-28T13:31:33.718Z,7.10
2022-11-28T13:34:01.369Z,7.90
2022-11-28T13:39:40.348Z,6.07
2022-11-28T13:42:44.324Z,9.90
2022-11-28T13:45:31.509Z,6.60
2022-11-28T13:51:30.209Z,4.72
2022-11-28T13:54:20.064Z,5.65
2022-11-28T13:57:06.243Z,5.22
2022-11-28T13:59:37.088Z,4.53
2022-11-28T14:06:34.163Z,5.25
2022-11-28T14:09:47.677Z,5.80
2022-11-28T14:12:47.656Z,5.35
2022-11-28T14:15:30.763Z,6.63
2022-11-28T14:18:55.711Z,6.47
2022-11-28T14:21:41.639Z,5.43
2022-11-28T14:24:39.509Z,5.57
2022-11-28T14:27:07.853Z,6.60
2022-11-28T14:29:38.721Z,6.53
2022-11-28T14:32:30.313Z,6.88
2022-11-28T14:34:55.145Z,6.95
2022-11-28T14:37:26.463Z,5.78
2022-11-28T14:40:47.353Z,4.55
2022-11-28T14:43:42.735Z,5.57
2022-11-28T14:46:28.950Z,4.57
2022-11-28T14:48:59.985Z,4.32
2022-11-28T14:51:45.785Z,5.15
2022-11-28T14:54:47.748Z,3.58
2022-11-28T14:57:17.946Z,4.17
2022-11-28T14:59:50.261Z,4.43
2022-11-28T15:02:46.570Z,5.93
2022-11-28T15:05:26.416Z,5.05
2022-11-28T15:08:01.726Z,6.20
2022-11-28T15:10:44.931Z,6.87
2022-11-28T15:13:22.113Z,6.07
2022-11-28T15:15:52.791Z,6.85
2022-11-28T15:18:22.624Z,6.97
2022-11-28T15:20:58.777Z,7.82
2022-11-28T15:23:30.343Z,5.77
2022-11-28T15:25:59.189Z,7.32
2022-11-28T15:28:29.253Z,7.35
2022-11-28T15:30:59.350Z,7.85
2022-11-28T15:33:29.881Z,7.88
2022-11-28T15:36:10.618Z,8.70
2022-11-28T15:38:41.641Z,6.90
2022-11-28T15:41:12.450Z,6.72
2022-11-28T15:43:45.731Z,7.57
2022-11-28T15:46:22.966Z,6.80
2022-11-28T15:48:53.666Z,5.97
2022-11-28T15:51:29.268Z,5.85
2022-11-28T15:53:57.522Z,6.05
2022-11-28T15:56:24.522Z,6.20
2022-11-28T15:58:52.779Z,6.60
2022-11-28T16:01:21.633Z,6.63
2022-11-28T16:04:04.078Z,7.13
2022-11-28T16:06:34.722Z,4.53
2022-11-28T16:09:06.582Z,5.78
2022-11-28T16:11:36.660Z,6.15
2022-11-28T16:14:09.844Z,7.20
2022-11-28T16:16:39.180Z,7.05
2022-11-28T16:19:09.070Z,6.60
2022-11-28T16:21:50.993Z,6.57
2022-11-28T16:24:46.627Z,5.28
2022-11-28T16:27:29.481Z,5.50
2022-11-28T16:29:57.468Z,5.55
2022-11-28T16:32:36.838Z,5.18
2022-11-28T16:35:06.013Z,5.60
2022-11-28T16:37:35.141Z,6.13
2022-11-28T16:40:22.082Z,4.87
2022-11-28T16:42:53.772Z,4.35
2022-11-28T16:45:31.054Z,6.60
2022-11-28T16:48:17.589Z,5.43
2022-11-28T16:51:03.001Z,4.75
2022-11-28T16:53:48.433Z,4.80
2022-11-28T16:56:33.964Z,4.25
2022-11-28T16:59:10.187Z,5.13
2022-11-28T17:01:38.135Z,6.10
2022-11-28T17:04:07.567Z,5.72
2022-11-28T17:06:39.172Z,6.70
2022-11-28T17:09:10.866Z,6.30
2022-11-28T17:11:45.714Z,6.57
2022-11-28T17:14:14.131Z,5.05
2022-11-28T17:16:42.323Z,4.80
2022-11-28T17:19:09.498Z,6.27
2022-11-28T17:21:45.330Z,6.00
2022-11-28T17:24:23.064Z,6.18
2022-11-28T17:26:51.414Z,4.72
2022-11-28T17:29:18.969Z,6.22
2022-11-28T17:31:47.374Z,5.10
2022-11-28T17:34:17.368Z,6.32
2022-11-28T17:36:45.173Z,6.72
2022-11-28T17:39:12.674Z,5.93
2022-11-28T17:41:40.949Z,6.82
2022-11-28T17:44:16.189Z,7.43
2022-11-28T17:46:43.244Z,6.70
2022-11-28T17:49:10.455Z,6.97
2022-11-28T17:51:38.780Z,6.03
2022-11-28T17:54:06.176Z,7.82
2022-11-28T17:56:33.657Z,6.60
2022-11-28T17:59:01.141Z,5.63
2022-11-28T18:01:31.193Z,6.10
2022-11-28T18:03:59.397Z,5.47
2022-11-28T18:06:26.740Z,4.57
2022-11-28T18:08:53.853Z,6.07
2022-11-28T18:11:21.635Z,5.88
2022-11-28T18:13:48.829Z,4.80
2022-11-28T18:16:18.776Z,5.03
2022-11-28T18:18:46.469Z,6.05
2022-11-28T18:21:14.108Z,5.10
2022-11-28T18:23:42.475Z,5.80
2022-11-28T18:26:15.735Z,5.28
2022-11-28T18:28:42.926Z,6.18
2022-11-28T18:31:31.679Z,7.40
2022-11-28T18:34:07.886Z,6.33
2022-11-28T18:36:37.314Z,6.40
2022-11-28T18:39:09.114Z,6.78
2022-11-28T18:41:37.335Z,7.55
2022-11-28T18:44:05.220Z,8.77
2022-11-28T18:46:33.605Z,6.90
2022-11-28T18:49:01.742Z,8.02
2022-11-28T18:51:32.184Z,8.00
2022-11-28T18:53:59.936Z,7.78
2022-11-28T18:56:36.426Z,8.45
2022-11-28T18:59:04.491Z,6.93
2022-11-28T19:01:42.238Z,7.35
2022-11-28T19:04:15.587Z,7.97
2022-11-28T19:06:44.828Z,8.77
2022-11-28T19:09:14.588Z,7.32
2022-11-28T19:11:42.841Z,6.73
2022-11-28T19:14:15.882Z,8.50
2022-11-28T19:16:45.286Z,8.75
2022-11-28T19:19:18.600Z,9.70
2022-11-28T19:21:51.569Z,8.23
2022-11-28T19:24:18.947Z,8.70
2022-11-28T19:26:46.438Z,6.18
2022-11-28T19:29:14.468Z,8.57
2022-11-28T19:31:45.609Z,8.45
2022-11-28T19:34:16.025Z,9.32
2022-11-28T19:36:47.899Z,7.67
2022-11-28T19:39:18.773Z,7.07
2022-11-28T19:41:47.529Z,7.53
2022-11-28T19:44:15.760Z,7.22
2022-11-28T19:46:48.455Z,7.38
2022-11-28T19:49:20.730Z,6.53
2022-11-28T19:51:49.654Z,6.80
2022-11-28T19:54:21.387Z,6.03
2022-11-28T19:56:51.887Z,7.70
2022-11-28T20:00:09.002Z,7.20
2022-11-28T20:02:41.296Z,6.67
2022-11-28T20:05:08.837Z,6.70
2022-11-28T20:07:36.610Z,6.45
2022-11-28T20:10:04.069Z,6.85
2022-11-28T20:12:31.852Z,6.18
2022-11-28T20:14:59.019Z,6.03
2022-11-28T20:17:26.027Z,5.50
2022-11-28T20:19:53.468Z,6.07
2022-11-28T20:22:22.901Z,5.28
2022-11-28T20:24:49.869Z,5.07
2022-11-28T20:27:17.678Z,5.50
2022-11-28T20:29:45.492Z,5.65
2022-11-28T20:32:12.848Z,5.90
2022-11-28T20:34:40.118Z,6.10
2022-11-28T20:37:07.113Z,7.10
2022-11-28T20:39:34.270Z,6.57
2022-11-28T20:42:01.487Z,6.50
2022-11-28T20:44:28.641Z,5.03
2022-11-28T20:47:03.062Z,5.95
2022-11-28T20:49:30.083Z,5.38
2022-11-28T20:52:00.231Z,5.20
2022-11-28T20:54:27.415Z,5.93
2022-11-28T20:57:20.326Z,5.47
2022-11-28T20:59:47.138Z,5.75
2022-11-28T21:02:16.643Z,4.88
2022-11-28T21:04:43.825Z,5.10
2022-11-28T21:07:12.630Z,4.82
2022-11-28T21:09:39.656Z,5.97
2022-11-28T21:12:06.893Z,5.53
2022-11-28T21:14:33.827Z,4.63
2022-11-28T21:17:01.431Z,4.53
2022-11-28T21:19:53.090Z,5.30
2022-11-28T21:22:20.121Z,5.55
2022-11-28T21:24:50.606Z,5.00
2022-11-28T21:27:17.663Z,5.85
2022-11-28T21:29:45.602Z,5.53
2022-11-28T21:32:15.355Z,5.65
2022-11-28T21:34:42.392Z,6.30
2022-11-28T21:37:09.372Z,5.65
2022-11-28T21:39:38.708Z,5.65
2022-11-28T21:42:07.444Z,5.00
2022-11-28T21:44:34.509Z,5.85
2022-11-28T21:47:03.579Z,5.80
2022-11-28T21:49:31.669Z,6.15
2022-11-28T21:51:58.801Z,5.45
2022-11-28T21:54:25.888Z,5.50
2022-11-28T21:56:52.777Z,5.32
2022-11-28T21:59:22.331Z,5.55
2022-11-28T22:01:50.293Z,5.10
2022-11-28T22:04:22.031Z,6.03
2022-11-28T22:06:51.058Z,5.97
2022-11-28T22:09:18.732Z,5.55
2022-11-28T22:11:45.742Z,7.60
2022-11-28T22:14:13.063Z,5.05
2022-11-28T22:16:40.142Z,6.05
2022-11-28T22:19:07.152Z,6.53
2022-11-28T22:21:53.016Z,6.00
2022-11-28T22:24:23.598Z,6.03
2022-11-28T22:26:50.697Z,6.15
2022-11-28T22:29:18.498Z,5.78
2022-11-28T22:31:45.786Z,5.67
2022-11-28T22:34:12.972Z,6.10
2022-11-28T22:36:40.474Z,6.93
2022-11-28T22:39:10.544Z,6.53
2022-11-28T22:41:38.092Z,6.22
2022-11-28T22:44:05.481Z,7.23
2022-11-28T22:46:32.853Z,8.40
2022-11-28T22:49:01.564Z,7.45
2022-11-28T22:51:29.822Z,6.05
2022-11-28T22:53:59.434Z,7.93
2022-11-28T22:56:29.214Z,7.93
2022-11-28T22:58:57.853Z,8.10
2022-11-28T23:01:29.682Z,8.43
2022-11-28T23:03:57.409Z,6.88
2022-11-28T23:06:27.666Z,7.88
2022-11-28T23:08:56.873Z,7.17
2022-11-28T23:12:42.355Z,7.50
2022-11-28T23:15:10.454Z,8.07
2022-11-28T23:17:37.567Z,6.80
2022-11-28T23:24:16.462Z,6.50
2022-11-28T23:26:45.007Z,6.57
2022-11-28T23:29:14.128Z,7.32
2022-11-28T23:31:43.543Z,8.10
2022-11-28T23:34:11.950Z,7.95
2022-11-28T23:36:45.092Z,7.53
2022-11-28T23:39:20.898Z,6.97
2022-11-28T23:41:48.407Z,7.85
2022-11-28T23:44:16.743Z,8.75
2022-11-28T23:46:44.596Z,6.60
2022-11-28T23:49:12.404Z,6.87
2022-11-28T23:51:43.192Z,6.32
2022-11-28T23:54:11.933Z,5.65
2022-11-28T23:56:40.404Z,7.18
2022-11-28T23:59:09.592Z,6.82
